Time;durP1;ratioP1;P1;durP2;ratioP2;P2;SDS_P1;SDS_P2;PMS_P1;PMS_P2;Temp;Humidity;BMP_temperature;BMP_pressure;BME280_temperature;BME280_humidity;BME280_pressure;Samples;Min_cycle;Max_cycle;Signal;HPM_P1;HPM_P2
2022/04/28 00:01:55;;;;;;;174.90;71.60;;;6.60;99.90;;;;;;5052123;28;20029;-52
2022/04/28 00:04:21;;;;;;;142.25;61.13;;;6.50;99.90;;;;;;5051686;28;20029;-52
2022/04/28 00:06:47;;;;;;;134.75;58.45;;;6.40;99.90;;;;;;5052293;28;20380;-50
2022/04/28 00:09:12;;;;;;;122.55;57.65;;;6.50;99.90;;;;;;5052132;28;20029;-52
2022/04/28 00:11:38;;;;;;;122.95;55.50;;;6.40;99.90;;;;;;5051638;28;20032;-49
2022/04/28 00:14:06;;;;;;;119.75;54.28;;;6.50;99.90;;;;;;5051649;28;20795;-50
2022/04/28 00:16:32;;;;;;;124.65;56.47;;;6.50;99.90;;;;;;5051724;28;20017;-51
2022/04/28 00:18:58;;;;;;;121.97;55.85;;;6.40;99.90;;;;;;5051472;28;20036;-51
2022/04/28 00:21:24;;;;;;;120.80;53.28;;;6.20;99.90;;;;;;5051543;28;20021;-50
2022/04/28 00:23:49;;;;;;;125.25;55.85;;;6.20;99.90;;;;;;5051803;28;20044;-51
2022/04/28 00:26:15;;;;;;;133.60;56.25;;;6.10;99.90;;;;;;5051395;28;20028;-49
2022/04/28 00:28:41;;;;;;;114.50;53.55;;;6.20;99.90;;;;;;5051139;28;20017;-51
2022/04/28 00:31:06;;;;;;;118.03;53.50;;;6.20;99.90;;;;;;5051197;28;20111;-56
2022/04/28 00:33:32;;;;;;;116.15;52.58;;;6.10;99.90;;;;;;5051255;28;20577;-50
2022/04/28 00:35:57;;;;;;;117.65;53.97;;;6.10;99.90;;;;;;5051096;28;20112;-50
2022/04/28 00:38:23;;;;;;;113.88;51.45;;;6.10;99.90;;;;;;5051150;28;20029;-50
2022/04/28 00:40:49;;;;;;;123.07;54.72;;;6.10;99.90;;;;;;5050798;28;20043;-52
2022/04/28 00:43:20;;;;;;;114.88;54.92;;;6.00;99.90;;;;;;5050090;28;20025;-51
2022/04/28 00:45:47;;;;;;;113.30;53.50;;;6.10;99.90;;;;;;5050909;28;20032;-51
2022/04/28 00:51:01;;;;;;;111.07;51.63;;;6.00;99.90;;;;;;5050929;28;20051;-51
2022/04/28 00:53:29;;;;;;;115.22;53.05;;;6.00;99.90;;;;;;5031038;28;20067;-51
2022/04/28 00:55:57;;;;;;;112.70;51.40;;;6.00;99.90;;;;;;5030823;28;20061;-51
2022/04/28 00:58:23;;;;;;;113.40;54.28;;;6.10;99.90;;;;;;5030725;28;20544;-53
2022/04/28 01:00:53;;;;;;;103.13;49.70;;;5.90;99.90;;;;;;5031166;28;20056;-51
2022/04/28 01:03:19;;;;;;;92.50;45.40;;;5.80;99.90;;;;;;5030478;28;20420;-52
2022/04/28 01:05:45;;;;;;;94.15;45.65;;;5.90;99.90;;;;;;5030581;28;20416;-50
2022/04/28 01:08:10;;;;;;;87.60;44.88;;;5.90;99.90;;;;;;5030799;28;20032;-51
2022/04/28 01:10:36;;;;;;;92.80;44.58;;;6.00;99.90;;;;;;5030307;28;20030;-51
2022/04/28 01:13:02;;;;;;;82.63;42.53;;;6.00;99.90;;;;;;5030605;28;20061;-50
2022/04/28 01:15:28;;;;;;;83.85;44.03;;;5.70;99.90;;;;;;5030520;28;20527;-51
2022/04/28 01:17:53;;;;;;;77.03;42.30;;;5.70;99.90;;;;;;5030831;28;20030;-49
2022/04/28 01:20:19;;;;;;;77.43;39.65;;;5.50;99.90;;;;;;5030466;28;20144;-52
2022/04/28 01:22:45;;;;;;;75.95;40.92;;;5.50;99.90;;;;;;5030286;28;20423;-51
2022/04/28 01:25:11;;;;;;;76.60;39.50;;;5.50;99.90;;;;;;5030124;28;20043;-50
2022/04/28 01:27:38;;;;;;;73.80;40.47;;;5.40;99.90;;;;;;5030204;28;20032;-51
2022/04/28 01:30:11;;;;;;;74.47;41.08;;;5.40;99.90;;;;;;5046775;28;20333;-51
2022/04/28 01:32:37;;;;;;;77.10;42.97;;;5.30;99.90;;;;;;5050379;28;20025;-52
2022/04/28 01:35:03;;;;;;;77.95;39.28;;;5.30;99.90;;;;;;5050243;28;20100;-51
2022/04/28 01:37:29;;;;;;;75.30;39.25;;;5.30;99.90;;;;;;5050256;28;20425;-51
2022/04/28 01:39:56;;;;;;;73.15;39.75;;;5.30;99.90;;;;;;5048059;28;20038;-50
2022/04/28 01:42:23;;;;;;;72.00;38.55;;;5.30;99.90;;;;;;5049930;28;20025;-51
2022/04/28 01:44:49;;;;;;;71.18;39.88;;;5.40;99.90;;;;;;5049998;28;20158;-50
2022/04/28 01:47:15;;;;;;;67.60;37.67;;;5.20;99.90;;;;;;5050149;28;20503;-51
2022/04/28 01:49:42;;;;;;;73.53;39.22;;;5.10;99.90;;;;;;5049495;28;20120;-53
2022/04/28 01:54:57;;;;;;;75.65;42.83;;;5.20;99.90;;;;;;5049450;28;20044;-50
2022/04/28 01:57:24;;;;;;;74.88;40.40;;;5.30;99.90;;;;;;5049693;28;20051;-50
2022/04/28 01:59:51;;;;;;;69.13;39.15;;;5.10;99.90;;;;;;5049784;28;20049;-51
2022/04/28 02:02:16;;;;;;;73.47;40.70;;;5.10;99.90;;;;;;5049789;28;20120;-51
2022/04/28 02:04:42;;;;;;;73.68;39.28;;;4.90;99.90;;;;;;5049751;28;20103;-51
2022/04/28 02:07:08;;;;;;;75.05;38.63;;;4.90;99.90;;;;;;5049475;28;20411;-51
2022/04/28 02:09:34;;;;;;;71.05;37.63;;;4.90;99.90;;;;;;5049770;28;20074;-51
2022/04/28 02:11:59;;;;;;;71.05;36.95;;;4.80;99.90;;;;;;5049381;28;20029;-52
2022/04/28 02:14:25;;;;;;;68.75;37.30;;;4.90;99.90;;;;;;5049731;28;20033;-50
2022/04/28 02:16:51;;;;;;;72.43;39.00;;;4.80;99.90;;;;;;5049213;28;20460;-52
2022/04/28 02:19:17;;;;;;;66.50;36.45;;;4.70;99.90;;;;;;5049388;28;20064;-52
2022/04/28 02:21:43;;;;;;;75.38;38.17;;;4.70;99.90;;;;;;5049704;28;20439;-53
2022/04/28 02:24:08;;;;;;;72.43;38.15;;;4.70;99.90;;;;;;5048965;28;20475;-50
2022/04/28 02:26:34;;;;;;;62.63;37.47;;;4.70;99.90;;;;;;5049441;28;20039;-51
2022/04/28 02:29:00;;;;;;;65.93;37.20;;;4.70;99.90;;;;;;5049109;28;20108;-49
2022/04/28 02:31:25;;;;;;;71.88;39.63;;;4.60;99.90;;;;;;5049585;28;20068;-51
2022/04/28 02:33:51;;;;;;;71.75;38.05;;;4.60;99.90;;;;;;5046988;28;20035;-49
2022/04/28 02:36:17;;;;;;;72.55;39.33;;;4.50;99.90;;;;;;5041133;28;20065;-50
2022/04/28 02:38:42;;;;;;;71.68;38.95;;;4.50;99.90;;;;;;5049355;28;20069;-50
2022/04/28 02:41:08;;;;;;;69.70;38.83;;;4.40;99.90;;;;;;5048989;28;20063;-48
2022/04/28 02:43:35;;;;;;;69.05;38.00;;;4.30;99.90;;;;;;5048821;28;20028;-50
2022/04/28 02:46:00;;;;;;;71.72;38.65;;;4.30;99.90;;;;;;5049302;28;20052;-51
2022/04/28 02:48:26;;;;;;;74.10;39.72;;;4.40;99.90;;;;;;5049243;28;20460;-51
2022/04/28 02:50:52;;;;;;;75.82;40.95;;;4.30;99.90;;;;;;5048471;28;20028;-50
2022/04/28 02:53:18;;;;;;;70.10;39.83;;;4.30;99.90;;;;;;5048959;28;20468;-51
2022/04/28 02:55:44;;;;;;;66.57;39.42;;;4.20;99.90;;;;;;5048977;28;20034;-50
2022/04/28 02:58:09;;;;;;;68.90;39.60;;;4.10;99.90;;;;;;5049042;28;20388;-50
2022/04/28 03:00:38;;;;;;;71.57;39.35;;;4.10;99.90;;;;;;5048676;28;20127;-51
2022/04/28 03:03:04;;;;;;;66.90;39.22;;;4.00;99.90;;;;;;5048931;28;20021;-51
2022/04/28 03:05:30;;;;;;;70.70;38.95;;;4.00;99.90;;;;;;5049420;28;20072;-51
2022/04/28 03:10:46;;;;;;;76.13;39.75;;;3.80;99.90;;;;;;5052939;28;20075;-51
2022/04/28 03:13:12;;;;;;;71.03;37.58;;;3.90;99.90;;;;;;5052417;28;20518;-49
2022/04/28 03:15:39;;;;;;;67.40;36.65;;;4.00;99.90;;;;;;5052559;28;20033;-52
2022/04/28 03:18:05;;;;;;;71.65;38.97;;;4.00;99.90;;;;;;5052203;28;20040;-51
2022/04/28 03:20:30;;;;;;;71.10;38.10;;;4.00;99.90;;;;;;5051858;28;20033;-52
2022/04/28 03:22:56;;;;;;;65.18;38.75;;;4.10;99.90;;;;;;5052377;28;20064;-51
2022/04/28 03:25:22;;;;;;;63.92;34.83;;;4.10;99.90;;;;;;5050841;28;20033;-49
2022/04/28 03:27:47;;;;;;;64.70;37.75;;;3.90;99.90;;;;;;5052534;28;20066;-52
2022/04/28 03:30:13;;;;;;;75.18;37.85;;;3.90;99.90;;;;;;5051761;28;20095;-53
2022/04/28 03:32:39;;;;;;;67.32;36.80;;;3.80;99.90;;;;;;5052141;28;20775;-52
2022/04/28 03:35:05;;;;;;;65.53;35.67;;;3.70;99.90;;;;;;5052180;28;20043;-52
2022/04/28 03:37:30;;;;;;;64.00;37.08;;;3.80;99.90;;;;;;5051704;28;20465;-51
2022/04/28 03:39:56;;;;;;;62.25;35.30;;;3.80;99.90;;;;;;5051922;28;20044;-50
2022/04/28 03:42:22;;;;;;;64.63;36.63;;;3.60;99.90;;;;;;5051676;28;20036;-52
2022/04/28 03:44:48;;;;;;;67.80;36.28;;;3.70;99.90;;;;;;5052137;28;20029;-52
2022/04/28 03:47:13;;;;;;;63.40;37.03;;;3.70;99.90;;;;;;5051851;28;20032;-52
2022/04/28 03:49:39;;;;;;;63.58;35.45;;;3.70;99.90;;;;;;5051581;28;20037;-52
2022/04/28 03:52:05;;;;;;;64.60;36.53;;;3.80;99.90;;;;;;5050276;28;20468;-51
2022/04/28 03:54:31;;;;;;;66.00;38.08;;;3.80;99.90;;;;;;5051701;28;20339;-52
2022/04/28 03:56:56;;;;;;;69.88;37.47;;;3.90;99.90;;;;;;5052004;28;20024;-51
2022/04/28 03:59:22;;;;;;;60.83;37.20;;;3.70;99.90;;;;;;5051683;28;20083;-52
2022/04/28 04:01:49;;;;;;;72.70;37.92;;;3.60;99.90;;;;;;5051631;28;20774;-51
2022/04/28 04:04:14;;;;;;;67.15;38.90;;;3.70;99.90;;;;;;5051617;28;20025;-51
2022/04/28 04:06:40;;;;;;;73.80;39.25;;;3.80;99.90;;;;;;5051604;28;20651;-52
2022/04/28 04:09:06;;;;;;;62.92;34.75;;;4.00;99.90;;;;;;5051200;28;20027;-49
2022/04/28 04:11:31;;;;;;;66.28;38.42;;;4.00;99.90;;;;;;5051551;28;20111;-51
2022/04/28 04:13:57;;;;;;;61.85;36.55;;;4.10;99.90;;;;;;5051531;28;20017;-50
2022/04/28 04:16:23;;;;;;;69.13;37.92;;;3.90;99.90;;;;;;5051345;28;20106;-52
2022/04/28 04:18:48;;;;;;;67.93;38.47;;;3.90;99.90;;;;;;5083362;28;20033;-52
2022/04/28 04:21:14;;;;;;;66.65;37.00;;;3.90;99.90;;;;;;5051283;28;20033;-52
2022/04/28 04:23:39;;;;;;;70.32;38.72;;;3.90;99.90;;;;;;5051282;28;20119;-51
2022/04/28 04:26:05;;;;;;;79.13;40.00;;;3.90;99.90;;;;;;5051235;28;20388;-52
2022/04/28 04:28:31;;;;;;;73.95;39.85;;;3.90;99.90;;;;;;5051011;28;20032;-52
2022/04/28 04:33:41;;;;;;;70.90;37.97;;;4.00;99.90;;;;;;5051074;28;20036;-49
2022/04/28 04:36:07;;;;;;;70.10;39.92;;;4.10;99.90;;;;;;5051194;28;20391;-51
2022/04/28 04:38:33;;;;;;;75.35;41.60;;;4.20;99.90;;;;;;5050740;28;20553;-51
2022/04/28 04:40:58;;;;;;;77.93;43.15;;;4.00;99.90;;;;;;5050826;28;20040;-56
2022/04/28 04:43:24;;;;;;;71.40;41.58;;;4.10;99.90;;;;;;5050931;28;20020;-51
2022/04/28 04:45:49;;;;;;;71.88;41.70;;;4.10;99.90;;;;;;5050847;28;20040;-53
2022/04/28 04:48:15;;;;;;;74.15;41.47;;;4.30;99.90;;;;;;5051019;28;20086;-49
2022/04/28 04:50:41;;;;;;;71.70;42.45;;;4.30;99.90;;;;;;5050847;28;20538;-52
2022/04/28 04:53:07;;;;;;;80.95;43.10;;;4.30;99.90;;;;;;5050454;28;20094;-53
2022/04/28 04:55:34;;;;;;;76.57;42.28;;;4.40;99.90;;;;;;5050371;28;20109;-52
2022/04/28 04:58:00;;;;;;;75.13;44.10;;;4.40;99.90;;;;;;5050755;28;20033;-51
2022/04/28 05:00:26;;;;;;;81.93;47.15;;;4.40;99.90;;;;;;5050606;28;20064;-51
2022/04/28 05:02:52;;;;;;;78.57;45.80;;;4.50;99.90;;;;;;5050576;28;20021;-52
2022/04/28 05:05:17;;;;;;;88.20;50.30;;;4.50;99.90;;;;;;5050279;28;20032;-51
2022/04/28 05:07:43;;;;;;;83.93;48.13;;;4.50;99.90;;;;;;5050496;28;20080;-54
2022/04/28 05:10:09;;;;;;;83.05;52.70;;;4.70;99.90;;;;;;5050378;28;20053;-51
2022/04/28 05:12:35;;;;;;;87.57;51.28;;;4.80;99.90;;;;;;5050295;28;20036;-52
2022/04/28 05:15:01;;;;;;;90.93;51.63;;;4.90;99.90;;;;;;5050191;28;20021;-52
2022/04/28 05:17:27;;;;;;;92.68;54.03;;;5.00;99.90;;;;;;5050175;28;20551;-51
2022/04/28 05:19:56;;;;;;;93.10;51.72;;;5.10;99.90;;;;;;5050213;28;20037;-51
2022/04/28 05:22:22;;;;;;;80.18;49.10;;;5.10;99.90;;;;;;5049914;28;20029;-50
2022/04/28 05:24:47;;;;;;;92.55;50.92;;;5.20;99.90;;;;;;5050271;28;20028;-51
2022/04/28 05:27:14;;;;;;;89.30;51.45;;;5.30;99.90;;;;;;5050287;28;20037;-51
2022/04/28 05:29:40;;;;;;;83.13;51.42;;;5.40;99.90;;;;;;5049215;28;20088;-51
2022/04/28 05:32:06;;;;;;;85.07;50.08;;;5.50;99.90;;;;;;5050071;28;20074;-50
2022/04/28 05:34:31;;;;;;;86.60;50.28;;;5.60;99.90;;;;;;5049985;28;20025;-50
2022/04/28 05:36:57;;;;;;;92.70;49.90;;;5.70;99.90;;;;;;5049836;28;20025;-49
2022/04/28 05:39:23;;;;;;;84.15;50.03;;;5.80;99.90;;;;;;5049448;28;20044;-51
2022/04/28 05:41:49;;;;;;;88.28;47.70;;;5.80;99.90;;;;;;5048128;28;20032;-52
2022/04/28 05:46:59;;;;;;;84.65;49.30;;;6.00;99.90;;;;;;5049764;28;20032;-52
2022/04/28 05:49:25;;;;;;;90.18;51.75;;;6.20;99.90;;;;;;5049310;28;20780;-52
2022/04/28 05:51:52;;;;;;;85.85;47.95;;;6.30;99.90;;;;;;5049451;28;20029;-52
2022/04/28 05:54:18;;;;;;;87.75;49.40;;;6.40;99.90;;;;;;5049500;28;20033;-52
2022/04/28 05:56:44;;;;;;;76.30;47.70;;;6.50;99.90;;;;;;5049633;28;20052;-52
2022/04/28 05:59:10;;;;;;;80.90;47.03;;;6.60;99.90;;;;;;5049206;28;20116;-52
2022/04/28 06:01:37;;;;;;;80.93;47.22;;;6.70;99.90;;;;;;5049720;28;20037;-51
2022/04/28 06:04:04;;;;;;;88.63;48.97;;;6.80;99.90;;;;;;5049830;28;20035;-51
2022/04/28 06:06:29;;;;;;;93.78;50.30;;;7.00;99.90;;;;;;5049197;28;20558;-51
2022/04/28 06:08:55;;;;;;;82.13;50.10;;;7.10;99.90;;;;;;5049313;28;20035;-50
2022/04/28 06:11:21;;;;;;;96.55;49.63;;;7.20;99.90;;;;;;5049782;28;20365;-52
2022/04/28 06:13:47;;;;;;;87.68;51.47;;;7.40;99.90;;;;;;5049602;28;20600;-51
2022/04/28 06:16:12;;;;;;;87.97;49.92;;;7.50;99.90;;;;;;5049526;28;20025;-52
2022/04/28 06:18:38;;;;;;;83.15;48.10;;;7.60;99.90;;;;;;5049398;28;20529;-50
2022/04/28 06:21:05;;;;;;;76.50;45.77;;;7.80;99.90;;;;;;5049773;28;20033;-52
2022/04/28 06:23:30;;;;;;;85.30;46.75;;;7.90;99.90;;;;;;5049314;28;20701;-52
2022/04/28 06:25:56;;;;;;;78.40;45.33;;;8.00;99.90;;;;;;5049247;28;20029;-51
2022/04/28 06:28:21;;;;;;;75.50;45.70;;;8.10;99.90;;;;;;5049648;28;20104;-51
2022/04/28 06:30:47;;;;;;;77.82;47.40;;;8.20;99.90;;;;;;5049020;28;20139;-51
2022/04/28 06:33:13;;;;;;;79.88;45.55;;;8.30;99.90;;;;;;5049674;28;20033;-52
2022/04/28 06:35:38;;;;;;;80.63;45.70;;;8.50;99.90;;;;;;5049354;28;20131;-52
2022/04/28 06:38:04;;;;;;;72.45;42.30;;;8.50;99.90;;;;;;5049061;28;20095;-51
2022/04/28 06:40:30;;;;;;;76.03;43.80;;;8.70;99.90;;;;;;5049955;28;20482;-50
2022/04/28 06:42:56;;;;;;;75.85;43.72;;;8.80;99.90;;;;;;5053337;28;20528;-52
2022/04/28 06:45:23;;;;;;;77.20;42.05;;;9.00;99.90;;;;;;5052942;28;20120;-50
2022/04/28 06:47:49;;;;;;;65.18;38.72;;;9.10;99.90;;;;;;5053231;28;20152;-48
2022/04/28 06:50:14;;;;;;;67.63;41.22;;;9.30;99.90;;;;;;5053220;28;20051;-51
2022/04/28 06:52:40;;;;;;;73.10;40.22;;;9.40;99.90;;;;;;5052944;28;20884;-51
2022/04/28 06:55:08;;;;;;;71.82;37.80;;;9.50;99.90;;;;;;5052948;28;20039;-52
2022/04/28 06:57:34;;;;;;;66.00;37.55;;;9.70;99.90;;;;;;5053226;28;20075;-51
2022/04/28 07:00:01;;;;;;;64.40;37.83;;;9.80;99.90;;;;;;5052914;28;20047;-50
2022/04/28 07:02:27;;;;;;;;;;;10.00;99.90;;;;;;5053184;28;20111;-52
2022/04/28 07:04:53;;;;;;;64.25;36.42;;;10.20;99.90;;;;;;5052645;28;19999;-50
2022/04/28 07:07:18;;;;;;;64.47;37.28;;;10.30;99.90;;;;;;5053061;28;20029;-50
2022/04/28 07:09:44;;;;;;;62.78;36.53;;;10.40;99.90;;;;;;5052645;28;20021;-51
2022/04/28 07:12:11;;;;;;;65.88;39.45;;;10.60;99.90;;;;;;5052477;28;20033;-50
2022/04/28 07:14:37;;;;;;;71.53;38.15;;;10.70;99.90;;;;;;5085149;28;20028;-52
2022/04/28 07:17:03;;;;;;;65.68;36.67;;;10.80;99.90;;;;;;5052898;28;20032;-49
2022/04/28 07:19:29;;;;;;;63.95;35.63;;;10.80;99.90;;;;;;5052208;28;20481;-51
2022/04/28 07:21:54;;;;;;;59.85;35.78;;;11.00;99.90;;;;;;5052571;28;20056;-51
2022/04/28 07:24:20;;;;;;;59.25;35.78;;;11.20;99.90;;;;;;5052515;28;20499;-51
2022/04/28 07:26:46;;;;;;;61.13;36.28;;;11.30;99.90;;;;;;5052546;28;20033;-52
2022/04/28 07:29:11;;;;;;;58.50;33.80;;;11.50;99.90;;;;;;5051887;28;20060;-50
2022/04/28 07:31:37;;;;;;;53.97;33.45;;;11.60;99.90;;;;;;5052550;28;20029;-50
2022/04/28 07:34:03;;;;;;;49.90;29.35;;;11.80;99.90;;;;;;5052099;28;20457;-50
2022/04/28 07:36:29;;;;;;;48.28;28.17;;;11.90;99.90;;;;;;5051233;28;20021;-51
2022/04/28 07:38:55;;;;;;;48.58;27.92;;;12.00;99.90;;;;;;5051777;28;20028;-51
2022/04/28 07:41:21;;;;;;;47.45;26.63;;;12.10;99.90;;;;;;5052345;28;20391;-52
2022/04/28 07:43:47;;;;;;;51.22;28.70;;;12.20;99.90;;;;;;5052119;28;20486;-52
2022/04/28 07:46:12;;;;;;;47.83;25.40;;;12.40;99.90;;;;;;5052306;28;20112;-47
2022/04/28 07:48:38;;;;;;;36.22;19.00;;;12.50;99.90;;;;;;5051809;28;20028;-49
2022/04/28 07:51:04;;;;;;;30.48;16.85;;;12.70;99.90;;;;;;5051222;28;20163;-49
2022/04/28 07:53:33;;;;;;;19.23;9.02;;;12.70;99.90;;;;;;5051890;28;20122;-52
2022/04/28 07:58:55;;;;;;;22.27;11.05;;;13.10;97.80;;;;;;5050830;28;20060;-50
2022/04/28 08:01:20;;;;;;;27.63;12.52;;;13.20;99.90;;;;;;5051597;28;20017;-50
2022/04/28 08:03:46;;;;;;;17.05;9.63;;;13.40;99.90;;;;;;5051791;28;20044;-50
2022/04/28 08:06:13;;;;;;;14.73;7.45;;;13.50;97.80;;;;;;5051800;28;20029;-49
2022/04/28 08:08:39;;;;;;;13.60;7.20;;;13.60;97.40;;;;;;5051680;28;20025;-50
2022/04/28 08:11:05;;;;;;;16.50;7.90;;;13.60;92.60;;;;;;5051292;28;20037;-51
2022/04/28 08:13:31;;;;;;;15.20;7.55;;;13.50;91.50;;;;;;5051883;28;20278;-51
2022/04/28 08:15:57;;;;;;;13.52;8.02;;;13.40;91.60;;;;;;5051575;28;20507;-51
2022/04/28 08:18:29;;;;;;;13.77;7.10;;;13.50;96.20;;;;;;5051801;28;20087;-52
2022/04/28 08:20:54;;;;;;;8.57;5.28;;;13.70;94.10;;;;;;5051029;28;20713;-51
2022/04/28 08:23:20;;;;;;;7.90;4.88;;;13.80;87.20;;;;;;5050792;28;20488;-50
2022/04/28 08:25:46;;;;;;;10.45;4.38;;;13.90;90.60;;;;;;5051121;28;20112;-49
2022/04/28 08:28:12;;;;;;;10.77;4.25;;;14.10;83.40;;;;;;5050818;28;20025;-49
2022/04/28 08:30:37;;;;;;;8.77;4.20;;;14.10;79.60;;;;;;5050651;28;20081;-51
2022/04/28 08:33:05;;;;;;;5.63;3.70;;;14.00;77.70;;;;;;5050791;28;20047;-50
2022/04/28 08:35:30;;;;;;;;;;;14.20;78.50;;;;;;5049602;28;20454;-51
2022/04/28 08:37:57;;;;;;;5.82;2.80;;;14.40;79.60;;;;;;5051147;28;19958;-51
2022/04/28 08:40:22;;;;;;;5.88;3.88;;;14.50;75.50;;;;;;5051940;28;20048;-50
2022/04/28 08:42:49;;;;;;;7.40;4.05;;;14.50;72.50;;;;;;5050772;28;20389;-51
2022/04/28 08:45:21;;;;;;;8.73;4.25;;;14.40;76.40;;;;;;5051131;28;20028;-50
2022/04/28 08:47:48;;;;;;;5.75;4.15;;;14.40;75.20;;;;;;5050917;28;20112;-49
2022/04/28 08:50:15;;;;;;;5.75;3.88;;;14.40;76.70;;;;;;5050727;28;20039;-51
2022/04/28 08:52:40;;;;;;;10.73;4.53;;;14.60;79.10;;;;;;5050591;28;20492;-50
2022/04/28 08:55:07;;;;;;;7.72;4.03;;;14.90;78.50;;;;;;5049887;28;20029;-51
2022/04/28 08:57:34;;;;;;;11.80;6.70;;;15.20;75.20;;;;;;5049538;28;20036;-50
2022/04/28 09:00:00;;;;;;;10.73;6.72;;;15.50;76.70;;;;;;5049659;28;20037;-52
2022/04/28 09:02:29;;;;;;;8.18;5.60;;;15.70;77.10;;;;;;5049820;28;20056;-52
2022/04/28 09:05:05;;;;;;;9.88;6.70;;;16.00;77.30;;;;;;5048870;28;20476;-50
2022/04/28 09:07:36;;;;;;;9.13;5.38;;;16.10;82.10;;;;;;5049488;28;20035;-48
2022/04/28 09:10:30;;;;;;;11.60;6.10;;;16.40;73.50;;;;;;5081505;28;20055;-52
2022/04/28 09:14:09;;;;;;;11.63;6.85;;;16.50;76.50;;;;;;5049836;28;20029;-50
2022/04/28 09:15:52;;;;;;;12.93;6.97;;;16.30;75.90;;;;;;5049328;28;20036;-50
2022/04/28 09:18:18;;;;;;;12.55;6.38;;;16.10;74.30;;;;;;5049486;28;20480;-50
2022/04/28 09:20:46;;;;;;;11.65;6.15;;;16.00;76.30;;;;;;5048032;28;20041;-52
2022/04/28 09:23:12;;;;;;;13.13;5.65;;;16.20;78.60;;;;;;5047844;28;20036;-51
2022/04/28 09:25:39;;;;;;;14.33;6.57;;;16.30;79.00;;;;;;5048565;28;20029;-50
2022/04/28 09:28:08;;;;;;;10.15;5.55;;;16.30;74.20;;;;;;5049082;28;20028;-51
2022/04/28 09:30:50;;;;;;;11.57;6.60;;;16.30;78.50;;;;;;5048088;28;20086;-50
2022/04/28 09:33:22;;;;;;;12.90;7.03;;;16.10;74.60;;;;;;5046540;28;20091;-49
2022/04/28 09:35:50;;;;;;;9.25;5.47;;;16.10;78.90;;;;;;5048210;28;20025;-50
2022/04/28 09:38:17;;;;;;;10.65;6.05;;;16.10;76.10;;;;;;5049893;28;20021;-50
2022/04/28 09:43:32;;;;;;;;;;;16.50;75.30;;;;;;5046596;28;20035;-50
2022/04/28 09:45:59;;;;;;;7.65;5.22;;;16.70;72.50;;;;;;5049327;28;20360;-53
2022/04/28 09:48:29;;;;;;;;;;;16.70;72.80;;;;;;5048827;28;20040;-48
2022/04/28 09:51:00;;;;;;;11.60;5.38;;;16.60;71.60;;;;;;5050029;28;19962;-52
2022/04/28 09:53:29;;;;;;;8.07;5.15;;;16.60;73.20;;;;;;5029962;28;20439;-50
2022/04/28 09:55:56;;;;;;;11.75;5.47;;;16.30;74.40;;;;;;5029518;28;20076;-52
2022/04/28 09:58:24;;;;;;;8.75;5.75;;;16.20;73.80;;;;;;5029750;28;20025;-51
2022/04/28 10:00:49;;;;;;;;;;;16.10;74.50;;;;;;5068419;28;20034;-51
2022/04/28 10:03:15;;;;;;;11.13;5.05;;;16.00;74.90;;;;;;5049563;28;19981;-49
2022/04/28 10:05:42;;;;;;;10.98;4.85;;;15.90;75.80;;;;;;5049247;28;20017;-52
2022/04/28 10:08:09;;;;;;;8.13;5.38;;;16.00;77.10;;;;;;5048702;28;20551;-52
2022/04/28 10:10:35;;;;;;;7.78;5.00;;;16.10;73.20;;;;;;5045666;28;20071;-50
2022/04/28 10:13:01;;;;;;;9.33;5.23;;;16.40;76.80;;;;;;5049015;28;20108;-49
2022/04/28 10:15:32;;;;;;;9.98;5.32;;;16.50;72.90;;;;;;5048834;28;20112;-52
2022/04/28 10:18:11;;;;;;;11.13;5.13;;;16.60;71.80;;;;;;5048932;28;20029;-49
2022/04/28 10:20:41;;;;;;;10.32;5.03;;;16.50;72.30;;;;;;5046708;28;20027;-49
2022/04/28 10:23:09;;;;;;;8.35;4.15;;;16.50;70.20;;;;;;5049478;28;20028;-51
2022/04/28 10:34:16;;;;;;;7.20;4.25;;;16.00;72.10;;;;;;5048842;28;20384;-51
2022/04/28 10:36:53;;;;;;;7.13;4.20;;;15.90;72.40;;;;;;5047024;28;20589;-49
2022/04/28 10:39:42;;;;;;;6.80;3.90;;;15.80;72.80;;;;;;5046361;28;20029;-51
2022/04/28 10:42:11;;;;;;;6.97;4.10;;;15.70;74.30;;;;;;5047894;28;20025;-50
2022/04/28 10:44:40;;;;;;;8.43;4.22;;;15.70;73.30;;;;;;5048295;28;20087;-50
2022/04/28 10:47:07;;;;;;;8.98;3.50;;;15.70;73.20;;;;;;5048109;28;20021;-49
2022/04/28 10:49:39;;;;;;;7.15;3.95;;;15.60;71.50;;;;;;5048115;28;20428;-51
2022/04/28 10:52:06;;;;;;;8.45;4.88;;;15.70;72.70;;;;;;5046561;28;20026;-50
2022/04/28 10:54:43;;;;;;;8.73;4.60;;;15.70;74.20;;;;;;5047299;28;20396;-51
2022/04/28 10:57:12;;;;;;;6.60;4.40;;;15.80;75.30;;;;;;5046409;28;20074;-50
2022/04/28 10:59:40;;;;;;;9.10;4.75;;;16.10;76.80;;;;;;5045910;28;20044;-51
2022/04/28 11:02:11;;;;;;;8.25;5.40;;;17.10;76.80;;;;;;5046904;28;20049;-49
2022/04/28 11:04:39;;;;;;;9.27;4.32;;;18.20;71.30;;;;;;5047196;28;20017;-49
2022/04/28 11:07:28;;;;;;;9.55;5.22;;;18.60;65.20;;;;;;5047294;28;20025;-50
2022/04/28 11:09:58;;;;;;;8.80;4.68;;;18.90;66.60;;;;;;5047730;28;20070;-50
2022/04/28 11:12:25;;;;;;;7.30;4.07;;;18.80;60.40;;;;;;5047006;28;20029;-49
2022/04/28 11:15:03;;;;;;;6.88;4.18;;;18.90;61.00;;;;;;5047817;28;20063;-52
2022/04/28 11:17:30;;;;;;;8.50;4.72;;;19.00;60.10;;;;;;5047545;28;20032;-50
2022/04/28 11:20:00;;;;;;;4.28;3.20;;;19.30;60.70;;;;;;5047530;28;20044;-51
2022/04/28 11:22:28;;;;;;;8.85;3.50;;;19.40;60.20;;;;;;5047718;28;20024;-50
2022/04/28 11:24:54;;;;;;;9.70;3.53;;;19.70;60.70;;;;;;5047981;28;20107;-50
2022/04/28 11:27:22;;;;;;;11.65;4.43;;;19.40;53.70;;;;;;5048360;28;20024;-52
2022/04/28 11:29:50;;;;;;;8.80;4.85;;;19.10;56.10;;;;;;5051072;28;20039;-50
2022/04/28 11:32:16;;;;;;;10.95;5.15;;;19.10;58.90;;;;;;5051093;28;20103;-51
2022/04/28 11:34:44;;;;;;;9.15;4.88;;;19.00;56.30;;;;;;5051348;28;20028;-48
2022/04/28 11:37:17;;;;;;;5.95;3.75;;;18.70;55.20;;;;;;5050519;28;20024;-51
2022/04/28 11:39:47;;;;;;;7.28;3.78;;;18.50;55.20;;;;;;5050204;28;20029;-49
2022/04/28 11:42:16;;;;;;;7.50;3.10;;;18.60;56.70;;;;;;5049934;28;20423;-49
2022/04/28 11:44:48;;;;;;;8.15;5.10;;;19.00;55.80;;;;;;5047565;28;20028;-50
2022/04/28 11:47:14;;;;;;;10.00;6.07;;;19.40;58.10;;;;;;5051398;28;20111;-51
2022/04/28 11:49:40;;;;;;;12.57;5.15;;;19.50;57.60;;;;;;5050638;28;20545;-53
2022/04/28 11:52:25;;;;;;;9.27;5.45;;;19.50;57.90;;;;;;5050019;28;20067;-51
2022/04/28 11:54:58;;;;;;;9.77;4.72;;;19.10;57.80;;;;;;5049307;28;20886;-51
2022/04/28 11:57:24;;;;;;;7.00;4.20;;;18.70;58.00;;;;;;5048643;28;20172;-51
2022/04/28 11:59:51;;;;;;;11.18;4.40;;;18.60;59.90;;;;;;5049501;28;20056;-51
2022/04/28 12:02:34;;;;;;;7.87;4.50;;;18.30;59.20;;;;;;5049997;28;20034;-51
2022/04/28 12:05:14;;;;;;;16.08;5.45;;;18.30;59.80;;;;;;5049117;28;20024;-49
2022/04/28 12:07:42;;;;;;;11.25;5.20;;;18.10;61.30;;;;;;5049974;28;20128;-50
2022/04/28 12:15:37;;;;;;;7.22;4.20;;;18.40;61.80;;;;;;5048456;28;20090;-51
2022/04/28 12:21:06;;;;;;;8.43;4.60;;;19.20;59.00;;;;;;5049439;28;20060;-51
2022/04/28 12:23:47;;;;;;;6.60;4.05;;;19.80;57.30;;;;;;5049588;28;20056;-50
2022/04/28 12:26:13;;;;;;;8.60;4.40;;;20.00;58.60;;;;;;5048824;28;20031;-51
2022/04/28 12:28:43;;;;;;;8.45;4.20;;;20.00;56.40;;;;;;5049178;28;20024;-51
2022/04/28 12:31:25;;;;;;;8.75;4.05;;;20.10;56.80;;;;;;5048327;28;20059;-50
2022/04/28 12:33:51;;;;;;;6.72;3.35;;;20.20;56.00;;;;;;5047079;28;20376;-51
2022/04/28 12:36:17;;;;;;;5.05;3.30;;;20.50;55.80;;;;;;5049304;28;20025;-50
2022/04/28 12:38:49;;;;;;;13.52;3.83;;;20.70;56.90;;;;;;5047158;28;20056;-51
2022/04/28 12:41:16;;;;;;;8.02;3.55;;;20.60;53.20;;;;;;5048821;28;20032;-51
2022/04/28 12:43:48;;;;;;;6.75;3.47;;;20.70;52.90;;;;;;5048601;28;20017;-51
2022/04/28 12:46:18;;;;;;;10.35;3.65;;;20.80;54.30;;;;;;5049642;28;20052;-51
2022/04/28 12:48:53;;;;;;;7.90;3.28;;;20.70;52.80;;;;;;5049657;28;20029;-50
2022/04/28 12:51:21;;;;;;;6.22;3.22;;;21.10;55.10;;;;;;5049862;28;20025;-51
2022/04/28 12:53:52;;;;;;;6.28;3.55;;;21.20;51.00;;;;;;5050707;28;20452;-51
2022/04/28 12:56:29;;;;;;;7.10;3.90;;;21.30;50.70;;;;;;5051054;28;20036;-50
2022/04/28 12:59:06;;;;;;;6.70;3.60;;;21.10;51.30;;;;;;5047485;28;20029;-49
2022/04/28 13:01:32;;;;;;;7.90;3.45;;;21.20;49.80;;;;;;5049153;28;20041;-53
2022/04/28 13:04:04;;;;;;;5.50;3.03;;;20.70;51.60;;;;;;5050059;28;20053;-50
2022/04/28 13:06:32;;;;;;;4.97;3.15;;;20.70;51.80;;;;;;5048906;28;20047;-51
2022/04/28 13:09:00;;;;;;;5.28;2.78;;;20.40;50.90;;;;;;5048219;28;20112;-49
2022/04/28 13:11:33;;;;;;;5.97;2.92;;;20.20;51.40;;;;;;5050020;28;20082;-50
2022/04/28 13:14:00;;;;;;;6.07;3.10;;;19.80;52.10;;;;;;5031124;28;20031;-50
2022/04/28 13:16:27;;;;;;;5.88;3.35;;;19.60;52.40;;;;;;5030671;28;20538;-49